createdAt,value
2022-08-02T00:00:10.216Z,99.90
2022-08-02T00:02:36.807Z,99.90
2022-08-02T00:05:03.891Z,99.90
2022-08-02T00:07:30.493Z,99.90
2022-08-02T00:09:57.153Z,99.90
2022-08-02T00:12:23.728Z,99.90
2022-08-02T00:14:50.429Z,99.90
2022-08-02T00:17:17.010Z,99.90
2022-08-02T00:19:43.855Z,99.90
2022-08-02T00:22:10.806Z,99.90
2022-08-02T00:24:37.772Z,99.90
2022-08-02T00:27:04.932Z,99.90
2022-08-02T00:29:36.004Z,60.90
2022-08-02T00:32:11.364Z,97.50
2022-08-02T00:34:38.443Z,71.90
2022-08-02T00:37:05.022Z,56.00
2022-08-02T00:39:35.356Z,83.70
2022-08-02T00:42:02.334Z,99.90
2022-08-02T00:44:28.968Z,99.90
2022-08-02T00:46:55.556Z,99.90
2022-08-02T00:49:22.305Z,99.90
2022-08-02T00:51:48.953Z,99.90
2022-08-02T00:54:15.629Z,99.90
2022-08-02T00:56:49.814Z,99.90
2022-08-02T00:59:17.828Z,99.90
2022-08-02T01:01:57.315Z,99.90
2022-08-02T01:04:26.891Z,99.90
2022-08-02T01:06:58.769Z,99.90
2022-08-02T01:09:25.827Z,99.90
2022-08-02T01:11:52.471Z,99.90
2022-08-02T01:14:19.128Z,1.00
2022-08-02T01:16:50.864Z,1.00
2022-08-02T01:19:37.944Z,1.00
2022-08-02T01:22:10.859Z,99.90
2022-08-02T01:24:42.823Z,99.90
2022-08-02T01:27:12.458Z,1.00
2022-08-02T01:29:39.893Z,1.00
2022-08-02T01:32:14.482Z,99.90
2022-08-02T01:34:42.956Z,99.90
2022-08-02T01:37:15.594Z,99.90
2022-08-02T01:39:42.574Z,99.90
2022-08-02T01:42:09.687Z,99.90
2022-08-02T01:44:36.838Z,99.90
2022-08-02T01:47:04.599Z,99.90
2022-08-02T01:49:31.257Z,99.90
2022-08-02T01:52:17.351Z,99.90
2022-08-02T01:54:43.976Z,99.90
2022-08-02T01:57:10.608Z,99.90
2022-08-02T01:59:37.331Z,99.90
2022-08-02T02:02:04.006Z,99.90
2022-08-02T02:04:31.066Z,99.90
2022-08-02T02:06:57.682Z,99.90
2022-08-02T02:09:25.920Z,99.90
2022-08-02T02:12:06.024Z,99.90
2022-08-02T02:14:39.125Z,1.00
2022-08-02T02:17:05.766Z,1.00
2022-08-02T02:19:33.271Z,1.00
2022-08-02T02:21:59.892Z,1.00
2022-08-02T02:24:28.188Z,1.00
2022-08-02T02:26:55.424Z,1.00
2022-08-02T02:29:22.127Z,1.00
2022-08-02T02:31:48.725Z,1.00
2022-08-02T02:34:16.120Z,1.00
2022-08-02T02:36:45.716Z,1.00
2022-08-02T02:39:13.773Z,1.00
2022-08-02T02:41:41.077Z,1.00
2022-08-02T02:44:07.659Z,1.00
2022-08-02T02:46:34.260Z,1.00
2022-08-02T02:49:01.126Z,1.00
2022-08-02T02:51:27.752Z,1.00
2022-08-02T02:54:32.480Z,1.00
2022-08-02T02:56:40.896Z,1.00
2022-08-02T02:59:07.720Z,1.00
2022-08-02T03:01:35.851Z,1.00
2022-08-02T03:04:21.608Z,1.00
2022-08-02T03:06:48.200Z,1.00
2022-08-02T03:09:14.779Z,1.00
2022-08-02T03:11:41.649Z,1.00
2022-08-02T03:14:11.662Z,1.00
2022-08-02T03:16:48.692Z,1.00
2022-08-02T03:19:15.359Z,1.00
2022-08-02T03:21:42.494Z,1.00
2022-08-02T03:24:09.268Z,1.00
2022-08-02T03:26:35.864Z,1.00
2022-08-02T03:29:10.038Z,1.00
2022-08-02T03:31:39.304Z,1.00
2022-08-02T03:34:05.885Z,1.00
2022-08-02T03:36:32.772Z,1.00
2022-08-02T03:38:59.730Z,1.00
2022-08-02T03:41:26.330Z,1.00
2022-08-02T03:43:52.914Z,1.00
2022-08-02T03:46:21.028Z,1.00
2022-08-02T03:48:48.179Z,1.00
2022-08-02T03:51:14.980Z,1.00
2022-08-02T03:53:41.560Z,1.00
2022-08-02T03:56:09.123Z,1.00
2022-08-02T03:58:35.736Z,1.00
2022-08-02T04:01:02.398Z,1.00
2022-08-02T04:03:29.311Z,1.00
2022-08-02T04:06:03.774Z,1.00
2022-08-02T04:08:37.100Z,1.00
2022-08-02T04:11:22.738Z,1.00
2022-08-02T04:13:49.849Z,1.00
2022-08-02T04:16:20.412Z,1.00
2022-08-02T04:18:51.733Z,1.00
2022-08-02T04:21:18.862Z,1.00
2022-08-02T04:23:45.439Z,1.00
2022-08-02T04:26:12.032Z,1.00
2022-08-02T04:28:39.878Z,1.00
2022-08-02T04:31:06.892Z,1.00
2022-08-02T04:33:33.477Z,1.00
2022-08-02T04:36:00.102Z,1.00
2022-08-02T04:38:26.703Z,1.00
2022-08-02T04:40:54.059Z,1.00
2022-08-02T04:43:20.709Z,1.00
2022-08-02T04:45:48.566Z,4.80
2022-08-02T04:48:15.160Z,1.00
2022-08-02T04:50:41.792Z,1.00
2022-08-02T04:53:08.368Z,1.00
2022-08-02T04:55:34.936Z,1.40
2022-08-02T04:58:04.043Z,1.00
2022-08-02T05:00:36.438Z,1.00
2022-08-02T05:03:03.132Z,1.00
2022-08-02T05:05:29.768Z,99.90
2022-08-02T05:07:56.504Z,99.90
2022-08-02T05:10:23.138Z,1.00
2022-08-02T05:12:49.802Z,1.00
2022-08-02T05:15:19.311Z,99.90
2022-08-02T05:17:48.142Z,1.00
2022-08-02T05:20:15.894Z,1.00
2022-08-02T05:22:42.512Z,1.00
2022-08-02T05:25:09.431Z,99.90
2022-08-02T05:27:36.066Z,1.00
2022-08-02T05:30:02.978Z,1.00
2022-08-02T05:32:29.601Z,1.00
2022-08-02T05:34:56.699Z,99.90
2022-08-02T05:37:23.317Z,1.00
2022-08-02T05:39:55.623Z,1.00
2022-08-02T05:42:23.380Z,1.00
2022-08-02T05:44:50.026Z,1.00
2022-08-02T05:47:16.638Z,1.00
2022-08-02T05:49:43.725Z,1.00
2022-08-02T05:52:17.363Z,1.00
2022-08-02T05:54:58.535Z,1.00
2022-08-02T05:57:26.636Z,1.00
2022-08-02T06:00:08.140Z,99.90
2022-08-02T06:02:34.726Z,1.00
2022-08-02T06:05:17.204Z,99.90
2022-08-02T06:07:44.569Z,1.00
2022-08-02T06:10:13.812Z,99.90
2022-08-02T06:12:41.877Z,99.90
2022-08-02T06:15:08.614Z,99.90
2022-08-02T06:17:35.217Z,99.90
2022-08-02T06:20:08.930Z,99.90
2022-08-02T06:22:37.205Z,1.00
2022-08-02T06:25:04.690Z,1.00
2022-08-02T06:27:31.353Z,1.00
2022-08-02T06:29:57.977Z,1.00
2022-08-02T06:32:24.622Z,99.90
2022-08-02T06:34:51.222Z,99.90
2022-08-02T06:37:25.186Z,1.00
2022-08-02T06:39:52.070Z,99.90
2022-08-02T06:42:26.961Z,99.90
2022-08-02T06:44:57.427Z,99.90
2022-08-02T06:47:25.012Z,99.90
2022-08-02T06:49:54.256Z,1.00
2022-08-02T06:52:28.447Z,99.90
2022-08-02T06:54:56.812Z,99.90
2022-08-02T06:57:23.418Z,99.90
2022-08-02T06:59:49.992Z,99.90
2022-08-02T07:02:16.586Z,99.90
2022-08-02T07:04:43.214Z,99.90
2022-08-02T07:07:09.921Z,1.00
2022-08-02T07:09:36.634Z,1.00
2022-08-02T07:12:04.242Z,1.00
2022-08-02T07:14:30.827Z,1.00
2022-08-02T07:16:58.792Z,99.90
2022-08-02T07:19:37.414Z,99.90
2022-08-02T07:22:04.669Z,99.90
2022-08-02T07:24:31.238Z,99.90
2022-08-02T07:27:13.969Z,99.90
2022-08-02T07:29:45.224Z,99.90
2022-08-02T07:32:20.985Z,99.90
2022-08-02T07:34:51.170Z,99.90
2022-08-02T07:37:35.910Z,99.90
2022-08-02T07:40:13.799Z,99.90
2022-08-02T07:42:45.014Z,99.90
2022-08-02T07:45:11.987Z,99.90
2022-08-02T07:47:38.990Z,99.90
2022-08-02T07:50:05.726Z,99.90
2022-08-02T07:52:32.343Z,99.90
2022-08-02T07:54:58.932Z,99.90
2022-08-02T07:57:25.535Z,99.90
2022-08-02T07:59:52.199Z,99.90
2022-08-02T08:02:18.814Z,99.90
2022-08-02T08:04:45.433Z,99.90
2022-08-02T08:07:12.236Z,99.90
2022-08-02T08:09:47.231Z,99.90
2022-08-02T08:12:14.469Z,99.90
2022-08-02T08:14:42.164Z,99.90
2022-08-02T08:17:08.911Z,99.90
2022-08-02T08:19:36.528Z,99.90
2022-08-02T08:22:21.017Z,99.90
2022-08-02T08:24:48.243Z,99.90
2022-08-02T08:27:15.668Z,99.90
2022-08-02T08:29:42.582Z,99.90
2022-08-02T08:32:14.134Z,99.90
2022-08-02T08:34:43.238Z,99.90
2022-08-02T08:37:09.873Z,99.90
2022-08-02T08:39:56.343Z,99.90
2022-08-02T08:42:28.177Z,99.90
2022-08-02T08:44:56.431Z,99.90
2022-08-02T08:47:23.538Z,99.90
2022-08-02T08:49:53.030Z,99.90
2022-08-02T08:52:20.214Z,99.90
2022-08-02T08:54:48.611Z,99.90
2022-08-02T08:57:16.046Z,99.90
2022-08-02T08:59:42.773Z,99.90
2022-08-02T09:02:10.384Z,99.90
2022-08-02T09:04:49.325Z,99.90
2022-08-02T09:07:22.197Z,99.90
2022-08-02T09:09:48.782Z,99.90
2022-08-02T09:12:15.887Z,99.90
2022-08-02T09:14:42.560Z,99.90
2022-08-02T09:17:10.078Z,99.90
2022-08-02T09:19:37.055Z,99.90
2022-08-02T09:22:08.069Z,99.90
2022-08-02T09:24:51.322Z,99.90
2022-08-02T09:27:18.765Z,99.90
2022-08-02T09:30:10.709Z,99.90
2022-08-02T09:32:33.283Z,99.90
2022-08-02T09:34:59.893Z,99.90
2022-08-02T09:37:27.702Z,99.90
2022-08-02T09:39:59.550Z,99.90
2022-08-02T09:42:29.744Z,99.90
2022-08-02T09:44:58.032Z,99.90
2022-08-02T09:47:25.300Z,99.90
2022-08-02T09:49:53.839Z,99.90
2022-08-02T09:52:22.402Z,99.90
2022-08-02T09:55:07.324Z,99.90
2022-08-02T09:57:33.929Z,99.90
2022-08-02T10:00:00.501Z,99.90
2022-08-02T10:02:27.161Z,99.90
2022-08-02T10:04:54.135Z,99.90
2022-08-02T10:07:21.597Z,99.90
2022-08-02T10:09:49.238Z,99.90
2022-08-02T10:12:15.887Z,99.90
2022-08-02T10:14:43.705Z,99.90
2022-08-02T10:17:10.315Z,99.90
2022-08-02T10:20:00.870Z,99.90
2022-08-02T10:22:24.057Z,99.90
2022-08-02T10:24:50.650Z,99.90
2022-08-02T10:27:17.778Z,99.90
2022-08-02T10:29:55.212Z,99.90
2022-08-02T10:32:27.189Z,99.90
2022-08-02T10:35:18.562Z,99.90
2022-08-02T10:37:47.077Z,99.90
2022-08-02T10:40:29.123Z,99.90
2022-08-02T10:42:59.287Z,99.90
2022-08-02T10:45:27.582Z,99.90
2022-08-02T10:47:57.888Z,99.90
2022-08-02T10:50:50.572Z,99.90
2022-08-02T10:53:29.838Z,99.90
2022-08-02T10:55:57.353Z,99.90
2022-08-02T10:58:26.273Z,99.90
2022-08-02T11:00:55.961Z,99.90
2022-08-02T11:03:28.858Z,99.90
2022-08-02T11:06:02.778Z,99.90
2022-08-02T11:08:29.430Z,99.90
2022-08-02T11:11:00.393Z,99.90
2022-08-02T11:13:27.080Z,99.90
2022-08-02T11:16:01.029Z,99.90
2022-08-02T11:18:42.677Z,99.90
2022-08-02T11:21:23.137Z,99.90
2022-08-02T11:23:50.089Z,99.90
2022-08-02T11:26:28.914Z,99.90
2022-08-02T11:28:55.597Z,99.90
2022-08-02T11:31:22.174Z,99.90
2022-08-02T11:33:49.122Z,99.90
2022-08-02T11:36:15.811Z,99.90
2022-08-02T11:38:42.481Z,99.90
2022-08-02T11:41:09.921Z,99.90
2022-08-02T11:43:37.190Z,99.90
2022-08-02T11:46:03.831Z,99.90
2022-08-02T11:48:34.272Z,99.90
2022-08-02T11:51:07.002Z,99.90
2022-08-02T11:53:43.554Z,99.90
2022-08-02T11:56:10.388Z,99.90
2022-08-02T11:58:37.284Z,99.90
2022-08-02T12:01:15.118Z,99.90
2022-08-02T12:03:41.885Z,99.90
2022-08-02T12:06:16.242Z,99.90
2022-08-02T12:08:43.121Z,99.90
2022-08-02T12:11:21.289Z,99.90
2022-08-02T12:13:57.007Z,99.90
2022-08-02T12:16:42.497Z,99.90
2022-08-02T12:19:23.545Z,99.90
2022-08-02T12:22:06.317Z,99.90
2022-08-02T12:24:32.904Z,99.90
2022-08-02T12:26:59.480Z,99.90
2022-08-02T12:29:58.090Z,99.90
2022-08-02T12:32:23.254Z,99.90
2022-08-02T12:35:00.161Z,99.90
2022-08-02T12:37:26.806Z,99.90
2022-08-02T12:39:54.001Z,99.90
2022-08-02T12:42:20.577Z,99.90
2022-08-02T12:44:54.042Z,99.90
2022-08-02T12:47:23.457Z,99.90
2022-08-02T12:50:09.161Z,99.90
2022-08-02T12:52:35.805Z,99.90
2022-08-02T12:55:14.376Z,99.90
2022-08-02T12:57:50.673Z,99.90
2022-08-02T13:00:22.943Z,99.90
2022-08-02T13:02:50.924Z,99.90
2022-08-02T13:05:17.811Z,99.90
2022-08-02T13:07:44.396Z,99.90
2022-08-02T13:10:10.994Z,99.90
2022-08-02T13:12:39.608Z,99.90
2022-08-02T13:15:12.686Z,99.90
2022-08-02T13:17:53.677Z,99.90
2022-08-02T13:20:20.316Z,99.90
2022-08-02T13:22:52.946Z,99.90
2022-08-02T13:25:23.318Z,99.90
2022-08-02T13:27:50.265Z,99.90
2022-08-02T13:30:16.900Z,99.90
2022-08-02T13:32:43.946Z,99.90
2022-08-02T13:35:18.087Z,99.90
2022-08-02T13:37:45.453Z,99.90
2022-08-02T13:40:21.611Z,99.90
2022-08-02T13:42:48.843Z,99.90
2022-08-02T13:45:15.584Z,99.90
2022-08-02T13:47:57.341Z,99.90
2022-08-02T13:50:30.202Z,99.90
2022-08-02T13:52:56.814Z,99.90
2022-08-02T13:55:23.423Z,99.90
2022-08-02T13:57:53.396Z,99.90
2022-08-02T14:00:20.613Z,99.90
2022-08-02T14:03:02.494Z,99.90
2022-08-02T14:05:39.116Z,99.90
2022-08-02T14:08:16.951Z,99.90
2022-08-02T14:10:44.133Z,99.90
2022-08-02T14:13:10.713Z,99.90
2022-08-02T14:15:37.312Z,99.90
2022-08-02T14:18:03.890Z,99.90
2022-08-02T14:20:30.605Z,99.90
2022-08-02T14:22:57.348Z,99.90
2022-08-02T14:25:24.144Z,99.90
2022-08-02T14:27:50.733Z,99.90
2022-08-02T14:30:17.752Z,99.90
2022-08-02T14:32:44.444Z,99.90
2022-08-02T14:35:11.098Z,99.90
2022-08-02T14:37:37.883Z,99.90
2022-08-02T14:40:04.693Z,99.90
2022-08-02T14:42:31.278Z,99.90
2022-08-02T14:44:58.162Z,99.90
2022-08-02T14:47:24.789Z,99.90
2022-08-02T14:49:51.864Z,99.90
2022-08-02T14:52:18.847Z,99.90
2022-08-02T14:54:46.683Z,99.90
2022-08-02T14:57:13.899Z,99.90
2022-08-02T14:59:42.529Z,99.90
2022-08-02T15:02:09.770Z,99.90
2022-08-02T15:04:42.678Z,99.90
2022-08-02T15:07:10.234Z,99.90
2022-08-02T15:09:39.443Z,99.90
2022-08-02T15:12:07.446Z,99.90
2022-08-02T15:14:34.078Z,99.90
2022-08-02T15:17:00.715Z,99.90
2022-08-02T15:19:34.195Z,99.90
2022-08-02T15:22:16.821Z,99.90
2022-08-02T15:24:46.038Z,99.90
2022-08-02T15:27:15.699Z,99.90
2022-08-02T15:29:42.543Z,99.90
2022-08-02T15:32:09.304Z,99.90
2022-08-02T15:34:36.194Z,99.90
2022-08-02T15:37:02.777Z,99.90
2022-08-02T15:39:29.410Z,99.90
2022-08-02T15:41:56.021Z,99.90
2022-08-02T15:44:22.717Z,99.90
2022-08-02T15:46:49.301Z,99.90
2022-08-02T15:49:16.177Z,99.90
2022-08-02T15:51:42.924Z,99.90
2022-08-02T15:54:09.510Z,99.90
2022-08-02T15:56:36.122Z,99.90
2022-08-02T15:59:02.751Z,99.90
2022-08-02T16:01:37.911Z,99.90
2022-08-02T16:04:06.201Z,99.90
2022-08-02T16:06:32.958Z,99.90
2022-08-02T16:08:59.532Z,99.90
2022-08-02T16:11:26.227Z,99.90
2022-08-02T16:13:56.516Z,99.90
2022-08-02T16:16:23.868Z,99.90
2022-08-02T16:18:50.511Z,99.90
2022-08-02T16:21:17.178Z,99.90
2022-08-02T16:24:00.537Z,99.90
2022-08-02T16:26:33.937Z,99.90
2022-08-02T16:29:00.730Z,99.90
2022-08-02T16:31:27.376Z,99.90
2022-08-02T16:33:56.493Z,99.90
2022-08-02T16:36:24.074Z,99.90
2022-08-02T16:38:50.823Z,99.90
2022-08-02T16:41:17.434Z,99.90
2022-08-02T16:43:44.027Z,99.90
2022-08-02T16:46:10.700Z,99.90
2022-08-02T16:48:37.298Z,99.90
2022-08-02T16:51:04.530Z,99.90
2022-08-02T16:53:36.669Z,99.90
2022-08-02T16:56:18.221Z,99.90
2022-08-02T16:58:47.678Z,99.90
2022-08-02T17:01:14.577Z,99.90
2022-08-02T17:03:56.822Z,99.90
2022-08-02T17:06:26.315Z,99.90
2022-08-02T17:08:56.103Z,99.90
2022-08-02T17:11:23.887Z,99.90
2022-08-02T17:13:51.282Z,99.90
2022-08-02T17:16:20.817Z,99.90
2022-08-02T17:18:54.091Z,99.90
2022-08-02T17:21:21.111Z,99.90
2022-08-02T17:24:05.031Z,99.90
2022-08-02T17:26:34.068Z,99.90
2022-08-02T17:29:15.209Z,99.90
2022-08-02T17:32:02.594Z,99.90
2022-08-02T17:34:31.518Z,99.90
2022-08-02T17:36:58.159Z,99.90
2022-08-02T17:39:24.744Z,99.90
2022-08-02T17:42:00.698Z,99.90
2022-08-02T17:44:37.476Z,99.90
2022-08-02T17:47:11.579Z,99.90
2022-08-02T17:49:44.394Z,99.90
2022-08-02T17:52:52.002Z,99.90
2022-08-02T17:55:03.452Z,99.90
2022-08-02T17:57:57.464Z,99.90
2022-08-02T18:00:17.076Z,99.90
2022-08-02T18:02:43.667Z,99.90
2022-08-02T18:05:20.342Z,99.90
2022-08-02T18:07:50.056Z,99.90
2022-08-02T18:10:17.777Z,99.90
2022-08-02T18:12:45.929Z,99.90
2022-08-02T18:15:14.603Z,99.90
2022-08-02T18:17:41.533Z,99.90
2022-08-02T18:20:11.105Z,99.90
2022-08-02T18:22:38.089Z,99.90
2022-08-02T18:25:09.109Z,99.90
2022-08-02T18:27:36.178Z,99.90
2022-08-02T18:30:05.912Z,99.90
2022-08-02T18:33:54.249Z,99.90
2022-08-02T18:35:19.584Z,99.90
2022-08-02T18:37:56.901Z,99.90
2022-08-02T18:40:27.546Z,99.90
2022-08-02T18:42:54.253Z,99.90
2022-08-02T18:45:21.291Z,99.90
2022-08-02T18:47:50.918Z,99.90
2022-08-02T18:50:18.100Z,99.90
2022-08-02T18:52:47.539Z,99.90
2022-08-02T18:55:17.093Z,99.90
2022-08-02T18:58:02.025Z,99.90
2022-08-02T19:00:30.982Z,99.90
2022-08-02T19:02:57.775Z,99.90
2022-08-02T19:05:24.401Z,99.90
2022-08-02T19:08:11.055Z,99.90
2022-08-02T19:10:39.542Z,99.90
2022-08-02T19:13:17.646Z,99.90
2022-08-02T19:15:44.423Z,99.90
2022-08-02T19:18:14.446Z,99.90
2022-08-02T19:20:41.229Z,99.90
2022-08-02T19:23:15.282Z,99.90
2022-08-02T19:25:50.302Z,99.90
2022-08-02T19:28:26.244Z,99.90
2022-08-02T19:30:53.771Z,99.90
2022-08-02T19:33:54.910Z,99.90
2022-08-02T19:36:07.191Z,99.90
2022-08-02T19:38:34.351Z,99.90
2022-08-02T19:41:01.699Z,99.90
2022-08-02T19:44:25.924Z,99.90
2022-08-02T19:46:15.954Z,99.90
2022-08-02T19:48:42.976Z,99.90
2022-08-02T19:51:12.943Z,99.90
2022-08-02T19:53:48.144Z,99.90
2022-08-02T19:56:20.728Z,99.90
2022-08-02T19:58:48.801Z,99.90
2022-08-02T20:01:16.824Z,99.90
2022-08-02T20:03:51.426Z,99.90
2022-08-02T20:06:19.816Z,99.90
2022-08-02T20:08:59.382Z,99.90
2022-08-02T20:11:29.119Z,99.90
2022-08-02T20:14:02.473Z,99.90
2022-08-02T20:16:33.093Z,99.90
2022-08-02T20:19:00.291Z,99.90
2022-08-02T20:21:30.598Z,99.90
2022-08-02T20:24:02.090Z,99.90
2022-08-02T20:26:30.400Z,99.90
2022-08-02T20:29:02.467Z,99.90
2022-08-02T20:31:29.856Z,99.90
2022-08-02T20:33:56.930Z,99.90
2022-08-02T20:36:24.448Z,99.90
2022-08-02T20:38:51.118Z,99.90
2022-08-02T20:41:21.674Z,99.90
2022-08-02T20:43:48.795Z,99.90
2022-08-02T20:46:15.469Z,99.90
2022-08-02T20:48:42.200Z,99.90
2022-08-02T20:51:12.256Z,99.90
2022-08-02T20:53:54.638Z,99.90
2022-08-02T20:56:21.754Z,99.90
2022-08-02T20:58:48.347Z,99.90
2022-08-02T21:01:21.141Z,1.00
2022-08-02T21:03:58.514Z,1.00
2022-08-02T21:06:28.058Z,1.00
2022-08-02T21:08:55.350Z,1.00
2022-08-02T21:11:25.611Z,1.00
2022-08-02T21:14:08.813Z,99.90
2022-08-02T21:16:36.171Z,1.00
2022-08-02T21:19:07.845Z,1.00
2022-08-02T21:21:35.045Z,1.00
2022-08-02T21:24:01.892Z,1.00
2022-08-02T21:26:30.995Z,1.00
2022-08-02T21:29:01.059Z,1.00
2022-08-02T21:31:32.079Z,1.00
2022-08-02T21:34:00.763Z,1.00
2022-08-02T21:36:30.585Z,1.00
2022-08-02T21:38:58.146Z,1.00
2022-08-02T21:41:24.821Z,1.00
2022-08-02T21:44:07.149Z,1.00
2022-08-02T21:46:33.782Z,1.00
2022-08-02T21:49:01.417Z,1.00
2022-08-02T21:51:28.049Z,1.00
2022-08-02T21:54:17.793Z,1.00
2022-08-02T21:56:42.335Z,1.00
2022-08-02T21:59:15.789Z,1.00
2022-08-02T22:01:53.216Z,1.00
2022-08-02T22:04:20.611Z,1.00
2022-08-02T22:06:48.971Z,1.00
2022-08-02T22:12:03.763Z,1.00
2022-08-02T22:14:30.340Z,1.00
2022-08-02T22:16:56.995Z,1.00
2022-08-02T22:19:23.579Z,1.00
2022-08-02T22:21:55.592Z,1.00
2022-08-02T22:24:29.886Z,1.00
2022-08-02T22:26:57.310Z,1.00
2022-08-02T22:29:23.913Z,1.00
2022-08-02T22:31:51.926Z,1.00
2022-08-02T22:34:36.805Z,1.00
2022-08-02T22:37:07.318Z,1.00
2022-08-02T22:39:34.270Z,1.00
2022-08-02T22:42:14.766Z,1.00
2022-08-02T22:44:41.408Z,1.00
2022-08-02T22:47:14.998Z,1.00
2022-08-02T22:49:45.361Z,1.00
2022-08-02T22:52:20.069Z,1.00
2022-08-02T22:54:47.533Z,1.00
2022-08-02T22:57:14.129Z,1.00
2022-08-02T22:59:11.273Z,1.00
2022-08-02T22:59:41.427Z,1.00
2022-08-02T23:02:08.893Z,1.00
2022-08-02T23:04:36.625Z,1.00
2022-08-02T23:07:03.395Z,1.00
2022-08-02T23:09:30.010Z,1.00
2022-08-02T23:11:56.668Z,1.00
2022-08-02T23:14:23.259Z,1.00
2022-08-02T23:17:08.487Z,1.00
2022-08-02T23:19:53.303Z,1.00
2022-08-02T23:22:21.843Z,1.00
2022-08-02T23:24:56.182Z,1.00
2022-08-02T23:27:22.782Z,1.00
2022-08-02T23:29:49.401Z,1.00
2022-08-02T23:32:16.181Z,1.00
2022-08-02T23:34:43.097Z,1.00
2022-08-02T23:37:09.689Z,15.70
2022-08-02T23:39:36.289Z,33.50
2022-08-02T23:42:03.121Z,57.80
2022-08-02T23:44:29.713Z,78.90
2022-08-02T23:46:56.572Z,99.90
2022-08-02T23:49:23.386Z,99.90
2022-08-02T23:51:50.231Z,99.90
2022-08-02T23:54:16.869Z,99.90
2022-08-02T23:56:43.446Z,99.90
2022-08-02T23:59:10.127Z,99.90
